Terminal Aerodrome Forecast
Issued by NWS Goodland, KS

Home | Current Version | Previous Version | Text Only | Print | Product List | Glossary On
Versions: 1 2 3 4 5 6 7 8 9 10 11 12 13 14
000
FTUS43 KGLD 251727
TAFGLD
TAF
KGLD 251727Z 2518/2618 33010KT P6SM FEW100
     FM252030 05012KT P6SM VCTS FEW050CB BKN100
      TEMPO 2521/2523 VRB25G45KT 6SM -TSRA OVC045CB
     FM260200 02011KT P6SM BKN120
     FM261400 36009KT P6SM SCT060
     FM261700 05008KT P6SM SCT080=

USA.gov is the U.S. government's official web portal to all federal, state and local government web resources and services.